createdAt,value
2022-10-26T00:01:07.266Z,22.90
2022-10-26T00:03:38.481Z,22.50
2022-10-26T00:06:26.460Z,24.90
2022-10-26T00:08:55.058Z,24.80
2022-10-26T00:11:22.739Z,24.70
2022-10-26T00:13:50.535Z,25.40
2022-10-26T00:16:26.904Z,24.80
2022-10-26T00:18:54.015Z,24.80
2022-10-26T00:21:20.547Z,25.60
2022-10-26T00:23:47.314Z,25.00
2022-10-26T00:26:13.995Z,26.00
2022-10-26T00:28:41.067Z,27.80
2022-10-26T00:31:13.172Z,26.60
2022-10-26T00:33:40.146Z,25.00
2022-10-26T00:36:09.489Z,26.20
2022-10-26T00:38:37.132Z,25.30
2022-10-26T00:41:04.646Z,29.90
2022-10-26T00:43:31.184Z,27.60
2022-10-26T00:46:01.002Z,26.80
2022-10-26T00:48:32.356Z,28.00
2022-10-26T00:51:05.535Z,27.30
2022-10-26T00:53:32.981Z,27.50
2022-10-26T00:56:00.596Z,27.90
2022-10-26T00:58:27.970Z,28.00
2022-10-26T01:00:55.000Z,26.80
2022-10-26T01:03:27.574Z,27.40
2022-10-26T01:05:57.185Z,28.30
2022-10-26T01:08:25.859Z,27.40
2022-10-26T01:10:52.978Z,26.70
2022-10-26T01:13:20.198Z,27.40
2022-10-26T01:15:55.879Z,27.10
2022-10-26T01:18:54.002Z,26.90
2022-10-26T01:21:39.019Z,26.90
2022-10-26T01:24:13.712Z,28.30
2022-10-26T01:26:54.360Z,27.20
2022-10-26T01:29:51.558Z,27.70
2022-10-26T01:32:23.995Z,26.20
2022-10-26T01:35:06.274Z,28.00
2022-10-26T01:37:39.430Z,29.00
2022-10-26T01:40:12.555Z,28.40
2022-10-26T01:42:44.515Z,29.00
2022-10-26T01:45:13.629Z,27.70
2022-10-26T01:47:41.307Z,28.40
2022-10-26T01:50:13.356Z,28.60
2022-10-26T01:52:40.438Z,28.30
2022-10-26T01:55:45.683Z,29.30
2022-10-26T01:58:24.415Z,27.30
2022-10-26T02:01:30.291Z,28.40
2022-10-26T02:04:15.116Z,27.60
2022-10-26T02:06:56.986Z,29.00
2022-10-26T02:09:29.499Z,28.30
2022-10-26T02:11:58.697Z,28.20
2022-10-26T02:14:33.753Z,28.70
2022-10-26T02:17:28.474Z,28.30
2022-10-26T02:20:05.771Z,29.70
2022-10-26T02:22:34.539Z,29.60
2022-10-26T02:25:07.526Z,29.30
2022-10-26T02:27:39.279Z,29.70
2022-10-26T02:30:07.980Z,31.30
2022-10-26T02:32:40.955Z,29.80
2022-10-26T02:35:08.497Z,29.90
2022-10-26T02:37:37.311Z,31.00
2022-10-26T02:40:11.218Z,31.60
2022-10-26T02:42:42.569Z,31.90
2022-10-26T02:45:13.114Z,32.40
2022-10-26T02:47:39.854Z,32.20
2022-10-26T02:50:06.970Z,32.80
2022-10-26T02:53:08.134Z,34.00
2022-10-26T02:55:44.388Z,33.90
2022-10-26T02:58:16.898Z,35.90
2022-10-26T03:00:45.654Z,36.70
2022-10-26T03:03:13.251Z,34.80
2022-10-26T03:05:42.359Z,35.70
2022-10-26T03:08:09.445Z,35.50
2022-10-26T03:10:45.515Z,36.40
2022-10-26T03:13:13.535Z,36.30
2022-10-26T03:15:40.994Z,36.00
2022-10-26T03:18:08.219Z,35.80
2022-10-26T03:20:35.131Z,33.00
2022-10-26T03:23:02.275Z,33.60
2022-10-26T03:25:29.032Z,33.10
2022-10-26T03:27:57.697Z,32.00
2022-10-26T03:30:24.851Z,32.00
2022-10-26T03:32:51.955Z,32.60
2022-10-26T03:35:19.085Z,31.50
2022-10-26T03:37:46.114Z,31.00
2022-10-26T03:40:13.393Z,29.50
2022-10-26T03:42:40.714Z,29.90
2022-10-26T03:45:08.779Z,30.00
2022-10-26T03:47:46.482Z,29.30
2022-10-26T03:50:15.056Z,30.30
2022-10-26T03:52:42.081Z,31.60
2022-10-26T03:55:09.415Z,30.20
2022-10-26T03:57:43.336Z,32.10
2022-10-26T04:00:14.857Z,32.40
2022-10-26T04:02:48.198Z,30.30
2022-10-26T04:05:16.154Z,30.90
2022-10-26T04:07:42.877Z,28.60
2022-10-26T04:10:10.105Z,28.60
2022-10-26T04:12:39.670Z,27.10
2022-10-26T04:15:07.533Z,30.30
2022-10-26T04:17:34.311Z,29.30
2022-10-26T04:20:00.969Z,31.00
2022-10-26T04:22:27.819Z,28.80
2022-10-26T04:24:54.297Z,29.10
2022-10-26T04:27:21.468Z,28.40
2022-10-26T04:29:48.071Z,29.00
2022-10-26T04:32:14.966Z,29.80
2022-10-26T04:34:41.635Z,28.60
2022-10-26T04:37:08.551Z,31.20
2022-10-26T04:39:35.067Z,32.40
2022-10-26T04:42:01.485Z,34.50
2022-10-26T04:44:28.178Z,32.60
2022-10-26T04:46:54.878Z,34.70
2022-10-26T04:49:21.587Z,31.40
2022-10-26T04:51:48.426Z,33.40
2022-10-26T04:54:15.256Z,33.50
2022-10-26T04:56:42.053Z,33.40
2022-10-26T04:59:08.734Z,32.50
2022-10-26T05:01:35.512Z,32.70
2022-10-26T05:04:02.403Z,34.50
2022-10-26T05:06:29.737Z,34.50
2022-10-26T05:08:56.646Z,36.00
2022-10-26T05:11:23.317Z,33.10
2022-10-26T05:13:49.961Z,33.90
2022-10-26T05:16:16.679Z,33.80
2022-10-26T05:18:43.148Z,33.40
2022-10-26T05:21:09.654Z,34.20
2022-10-26T05:23:36.188Z,33.50
2022-10-26T05:26:02.925Z,34.00
2022-10-26T05:28:29.457Z,34.60
2022-10-26T05:30:58.016Z,34.30
2022-10-26T05:33:24.694Z,35.10
2022-10-26T05:35:55.180Z,34.70
2022-10-26T05:38:21.986Z,34.20
2022-10-26T05:40:54.111Z,33.40
2022-10-26T05:43:22.555Z,31.70
2022-10-26T05:45:50.361Z,31.80
2022-10-26T05:48:17.344Z,30.90
2022-10-26T05:50:45.036Z,29.30
2022-10-26T05:53:11.941Z,28.90
2022-10-26T05:55:39.058Z,29.10
2022-10-26T05:58:16.178Z,25.50
2022-10-26T06:01:23.971Z,25.50
2022-10-26T06:04:29.247Z,25.90
2022-10-26T06:06:57.052Z,26.90
2022-10-26T06:09:24.311Z,25.80
2022-10-26T06:11:51.598Z,28.50
2022-10-26T06:14:18.640Z,27.70
2022-10-26T06:16:48.145Z,26.30
2022-10-26T06:19:57.515Z,22.50
2022-10-26T06:22:31.457Z,21.40
2022-10-26T06:25:22.090Z,21.00
2022-10-26T06:28:01.355Z,23.20
2022-10-26T06:30:28.245Z,24.60
2022-10-26T06:33:05.676Z,23.00
2022-10-26T06:35:53.926Z,22.50
2022-10-26T06:38:23.045Z,19.70
2022-10-26T06:40:55.995Z,19.10
2022-10-26T06:43:27.069Z,20.70
2022-10-26T06:46:08.365Z,19.70
2022-10-26T06:48:47.635Z,19.60
2022-10-26T06:51:16.856Z,20.70
2022-10-26T06:53:49.234Z,19.50
2022-10-26T06:56:17.728Z,17.80
2022-10-26T06:58:45.730Z,17.70
2022-10-26T07:01:12.863Z,17.40
2022-10-26T07:03:40.618Z,17.00
2022-10-26T07:06:09.263Z,18.00
2022-10-26T07:08:36.348Z,16.10
2022-10-26T07:11:04.570Z,17.10
2022-10-26T07:13:31.214Z,16.20
2022-10-26T07:15:57.771Z,17.10
2022-10-26T07:18:24.438Z,18.10
2022-10-26T07:20:51.280Z,19.10
2022-10-26T07:23:18.204Z,16.70
2022-10-26T07:25:44.908Z,16.90
2022-10-26T07:28:11.525Z,18.20
2022-10-26T07:30:39.723Z,16.00
2022-10-26T07:33:12.365Z,16.60
2022-10-26T07:35:40.335Z,17.90
2022-10-26T07:38:08.166Z,18.20
2022-10-26T07:40:37.085Z,18.50
2022-10-26T07:43:03.905Z,19.80
2022-10-26T07:45:30.703Z,18.00
2022-10-26T07:47:57.231Z,17.80
2022-10-26T07:50:24.597Z,17.20
2022-10-26T07:52:51.606Z,20.00
2022-10-26T07:55:19.650Z,22.20
2022-10-26T07:57:48.549Z,23.10
2022-10-26T08:00:21.233Z,21.50
2022-10-26T08:02:47.940Z,21.50
2022-10-26T08:05:14.898Z,20.60
2022-10-26T08:07:43.508Z,19.30
2022-10-26T08:10:11.682Z,22.30
2022-10-26T08:12:38.836Z,24.10
2022-10-26T08:15:06.938Z,23.10
2022-10-26T08:17:33.915Z,23.60
2022-10-26T08:20:00.650Z,19.30
2022-10-26T08:22:30.515Z,19.30
2022-10-26T08:24:57.409Z,24.80
2022-10-26T08:27:24.114Z,21.70
2022-10-26T08:29:50.870Z,22.00
2022-10-26T08:32:17.705Z,21.00
2022-10-26T08:34:44.489Z,22.80
2022-10-26T08:37:11.512Z,22.00
2022-10-26T08:39:38.269Z,19.20
2022-10-26T08:42:18.587Z,19.60
2022-10-26T08:44:57.797Z,17.10
2022-10-26T08:47:43.312Z,18.60
2022-10-26T08:50:26.610Z,20.70
2022-10-26T08:53:04.277Z,19.10
2022-10-26T08:55:45.071Z,19.00
2022-10-26T08:58:21.895Z,14.90
2022-10-26T09:00:50.322Z,14.90
2022-10-26T09:03:18.726Z,15.00
2022-10-26T09:05:45.614Z,17.20
2022-10-26T09:08:19.164Z,16.70
2022-10-26T09:10:56.395Z,19.60
2022-10-26T09:13:41.150Z,19.70
2022-10-26T09:16:25.015Z,21.10
2022-10-26T09:19:35.469Z,21.50
2022-10-26T09:22:30.158Z,27.10
2022-10-26T09:25:09.446Z,25.70
2022-10-26T09:27:44.634Z,25.50
2022-10-26T09:30:17.867Z,26.10
2022-10-26T09:32:51.825Z,23.70
2022-10-26T09:35:23.833Z,22.20
2022-10-26T09:37:58.121Z,23.60
2022-10-26T09:40:33.571Z,23.80
2022-10-26T09:43:06.891Z,25.80
2022-10-26T09:45:38.873Z,24.20
2022-10-26T09:48:07.705Z,21.10
2022-10-26T09:50:40.376Z,21.20
2022-10-26T09:53:07.109Z,21.60
2022-10-26T09:55:42.155Z,20.30
2022-10-26T09:58:23.744Z,21.80
2022-10-26T10:00:51.553Z,20.60
2022-10-26T10:03:27.035Z,21.30
2022-10-26T10:06:14.399Z,19.50
2022-10-26T10:08:41.458Z,17.80
2022-10-26T10:11:14.838Z,18.80
2022-10-26T10:13:45.687Z,18.80
2022-10-26T10:16:24.384Z,17.80
2022-10-26T10:18:59.748Z,17.30
2022-10-26T10:22:00.242Z,21.20
2022-10-26T10:24:28.313Z,19.50
2022-10-26T10:27:04.030Z,18.30
2022-10-26T10:29:41.681Z,18.30
2022-10-26T10:32:21.614Z,19.10
2022-10-26T10:35:23.709Z,17.60
2022-10-26T10:38:17.897Z,18.30
2022-10-26T10:41:13.295Z,19.00
2022-10-26T10:44:17.932Z,18.80
2022-10-26T10:47:05.585Z,16.00
2022-10-26T10:49:52.959Z,17.70
2022-10-26T10:52:38.395Z,15.20
2022-10-26T10:55:27.065Z,18.70
2022-10-26T10:58:26.951Z,15.80
2022-10-26T11:01:27.123Z,18.10
2022-10-26T11:04:35.514Z,14.70
2022-10-26T11:07:26.487Z,14.20
2022-10-26T11:10:17.260Z,16.20
2022-10-26T11:13:29.175Z,15.30
2022-10-26T11:16:05.505Z,17.80
2022-10-26T11:19:31.178Z,14.90
2022-10-26T11:21:58.143Z,14.60
2022-10-26T11:24:33.937Z,16.10
2022-10-26T11:27:08.918Z,15.30
2022-10-26T11:29:38.333Z,16.10
2022-10-26T11:32:23.476Z,15.10
2022-10-26T11:35:43.723Z,18.20
2022-10-26T11:38:56.959Z,17.70
2022-10-26T11:41:40.989Z,17.20
2022-10-26T11:44:19.694Z,18.50
2022-10-26T11:47:08.032Z,17.20
2022-10-26T11:49:34.730Z,16.80
2022-10-26T11:52:19.552Z,19.50
2022-10-26T11:55:00.153Z,18.50
2022-10-26T11:57:28.623Z,20.90
2022-10-26T12:00:02.546Z,18.60
2022-10-26T12:02:31.422Z,18.00
2022-10-26T12:05:17.032Z,17.60
2022-10-26T12:07:51.720Z,16.40
2022-10-26T12:10:31.924Z,18.20
2022-10-26T12:13:19.986Z,17.50
2022-10-26T12:16:22.092Z,16.70
2022-10-26T12:18:58.616Z,18.20
2022-10-26T12:21:30.887Z,20.10
2022-10-26T12:24:21.390Z,17.10
2022-10-26T12:26:57.971Z,18.80
2022-10-26T12:29:46.114Z,18.30
2022-10-26T12:32:27.740Z,21.40
2022-10-26T12:34:54.526Z,19.20
2022-10-26T12:37:36.671Z,18.90
2022-10-26T12:40:32.510Z,21.30
2022-10-26T12:43:14.446Z,17.60
2022-10-26T12:46:12.973Z,17.60
2022-10-26T12:48:41.147Z,18.20
2022-10-26T12:51:24.362Z,13.60
2022-10-26T12:54:07.505Z,12.10
2022-10-26T12:57:00.072Z,12.80
2022-10-26T13:00:00.620Z,11.90
2022-10-26T13:02:59.741Z,11.30
2022-10-26T13:05:57.395Z,14.30
2022-10-26T13:08:25.263Z,13.00
2022-10-26T13:11:12.617Z,13.00
2022-10-26T13:13:41.100Z,14.00
2022-10-26T13:16:13.065Z,14.50
2022-10-26T13:18:47.832Z,12.90
2022-10-26T13:21:19.959Z,14.70
2022-10-26T13:23:57.108Z,15.30
2022-10-26T13:26:26.512Z,15.40
2022-10-26T13:29:01.442Z,17.10
2022-10-26T13:31:28.429Z,17.80
2022-10-26T13:34:00.808Z,14.80
2022-10-26T13:36:40.296Z,16.20
2022-10-26T13:39:17.471Z,14.80
2022-10-26T13:41:47.534Z,14.90
2022-10-26T13:44:26.107Z,15.60
2022-10-26T13:46:57.943Z,16.10
2022-10-26T13:49:29.863Z,15.80
2022-10-26T13:52:02.552Z,16.30
2022-10-26T13:54:49.552Z,15.20
2022-10-26T13:57:32.778Z,15.50
2022-10-26T14:00:03.946Z,17.40
2022-10-26T14:02:32.011Z,17.10
2022-10-26T14:05:04.985Z,18.50
2022-10-26T14:07:40.125Z,16.90
2022-10-26T14:10:07.156Z,15.20
2022-10-26T14:12:34.157Z,14.40
2022-10-26T14:15:09.685Z,16.40
2022-10-26T14:17:36.476Z,12.90
2022-10-26T14:20:04.478Z,15.90
2022-10-26T14:22:31.360Z,14.80
2022-10-26T14:24:59.945Z,12.60
2022-10-26T14:27:39.707Z,16.90
2022-10-26T14:30:28.435Z,12.90
2022-10-26T14:32:56.001Z,11.90
2022-10-26T14:35:32.828Z,14.30
2022-10-26T14:38:29.602Z,14.90
2022-10-26T14:40:57.911Z,15.40
2022-10-26T14:43:26.809Z,15.80
2022-10-26T14:45:54.024Z,14.60
2022-10-26T14:48:27.930Z,15.10
2022-10-26T14:51:15.051Z,17.80
2022-10-26T14:53:50.472Z,18.90
2022-10-26T14:56:26.806Z,17.10
2022-10-26T14:58:54.855Z,16.80
2022-10-26T15:01:21.823Z,16.20
2022-10-26T15:04:03.196Z,16.90
2022-10-26T15:06:34.494Z,16.90
2022-10-26T15:09:04.654Z,15.10
2022-10-26T15:11:33.645Z,15.80
2022-10-26T15:14:02.715Z,15.50
2022-10-26T15:16:34.325Z,16.90
2022-10-26T15:19:13.672Z,16.30
2022-10-26T15:21:47.292Z,17.10
2022-10-26T15:24:24.597Z,14.90
2022-10-26T15:26:52.016Z,16.00
2022-10-26T15:29:39.045Z,15.30
2022-10-26T15:32:20.397Z,21.30
2022-10-26T15:35:29.987Z,19.60
2022-10-26T15:37:58.522Z,18.10
2022-10-26T15:40:27.437Z,18.70
2022-10-26T15:42:57.762Z,17.50
2022-10-26T15:45:32.376Z,17.70
2022-10-26T15:48:15.153Z,17.40
2022-10-26T15:50:42.015Z,19.10
2022-10-26T15:53:17.838Z,17.90
2022-10-26T15:55:44.671Z,18.90
2022-10-26T15:58:12.085Z,20.50
2022-10-26T16:00:38.832Z,19.10
2022-10-26T16:03:05.831Z,20.40
2022-10-26T16:07:59.167Z,18.80
2022-10-26T16:10:25.899Z,18.20
2022-10-26T16:12:52.535Z,16.60
2022-10-26T16:15:24.306Z,17.20
2022-10-26T16:17:52.356Z,17.60
2022-10-26T16:20:24.778Z,20.70
2022-10-26T16:22:52.469Z,15.70
2022-10-26T16:25:24.505Z,22.40
2022-10-26T16:27:56.770Z,20.90
2022-10-26T16:30:26.966Z,23.00
2022-10-26T16:32:56.716Z,23.60
2022-10-26T16:35:23.922Z,17.30
2022-10-26T16:37:50.742Z,21.90
2022-10-26T16:40:17.696Z,18.90
2022-10-26T16:42:44.813Z,19.60
2022-10-26T16:45:13.485Z,20.70
2022-10-26T16:47:40.836Z,20.60
2022-10-26T16:50:12.192Z,20.10
2022-10-26T16:52:39.864Z,22.20
2022-10-26T16:55:08.765Z,25.50
2022-10-26T16:57:36.776Z,23.30
2022-10-26T17:00:06.305Z,23.40
2022-10-26T17:02:33.202Z,22.60
2022-10-26T17:05:02.771Z,22.30
2022-10-26T17:07:32.785Z,23.00
2022-10-26T17:09:59.497Z,22.80
2022-10-26T17:14:53.008Z,28.70
2022-10-26T17:17:19.937Z,27.20
2022-10-26T17:19:46.688Z,28.10
2022-10-26T17:22:13.466Z,29.70
2022-10-26T17:24:40.400Z,26.40
2022-10-26T17:27:07.059Z,24.20
2022-10-26T17:29:33.926Z,25.90
2022-10-26T17:32:00.669Z,34.70
2022-10-26T17:34:27.505Z,25.70
2022-10-26T17:36:54.330Z,24.40
2022-10-26T17:39:21.078Z,26.50
2022-10-26T17:41:47.860Z,25.80
2022-10-26T17:44:14.685Z,29.30
2022-10-26T17:46:41.685Z,24.80
2022-10-26T17:49:08.324Z,28.10
2022-10-26T17:51:35.484Z,29.50
2022-10-26T17:54:02.624Z,30.90
2022-10-26T17:56:32.073Z,32.60
2022-10-26T17:59:04.998Z,28.70
2022-10-26T18:01:32.546Z,32.90
2022-10-26T18:04:00.558Z,34.10
2022-10-26T18:06:27.815Z,33.80
2022-10-26T18:08:57.154Z,29.20
2022-10-26T18:11:27.204Z,34.40
2022-10-26T18:13:56.155Z,32.80
2022-10-26T18:16:25.402Z,37.60
2022-10-26T18:19:01.453Z,33.50
2022-10-26T18:21:38.596Z,45.90
2022-10-26T18:24:06.939Z,51.30
2022-10-26T18:26:34.416Z,55.40
2022-10-26T18:29:08.167Z,45.10
2022-10-26T18:31:35.069Z,48.70
2022-10-26T18:34:04.486Z,49.10
2022-10-26T18:36:33.214Z,43.50
2022-10-26T18:39:00.027Z,42.30
2022-10-26T18:41:27.600Z,42.90
2022-10-26T18:43:59.183Z,43.50
2022-10-26T18:46:28.636Z,41.60
2022-10-26T18:48:56.422Z,51.10
2022-10-26T18:51:30.352Z,45.90
2022-10-26T18:53:58.517Z,42.80
2022-10-26T18:56:26.831Z,43.20
2022-10-26T18:59:02.605Z,55.00
2022-10-26T19:01:32.896Z,59.50
2022-10-26T19:04:10.845Z,50.40
2022-10-26T19:06:40.148Z,51.00
2022-10-26T19:09:09.621Z,54.40
2022-10-26T19:11:37.751Z,54.00
2022-10-26T19:14:04.978Z,59.30
2022-10-26T19:16:48.171Z,54.30
2022-10-26T19:19:18.297Z,56.00
2022-10-26T19:21:47.479Z,66.60
2022-10-26T19:24:20.429Z,55.70
2022-10-26T19:26:49.747Z,55.10
2022-10-26T19:29:22.915Z,57.50
2022-10-26T19:31:52.915Z,54.10
2022-10-26T19:34:19.591Z,57.50
2022-10-26T19:36:47.179Z,54.30
2022-10-26T19:39:18.003Z,51.00
2022-10-26T19:41:45.971Z,55.00
2022-10-26T19:44:13.548Z,55.30
2022-10-26T19:46:40.178Z,57.70
2022-10-26T19:49:07.545Z,50.60
2022-10-26T19:51:34.373Z,59.90
2022-10-26T19:54:03.625Z,59.20
2022-10-26T19:56:35.899Z,65.70
2022-10-26T19:59:03.462Z,66.90
2022-10-26T20:01:30.171Z,120.90
2022-10-26T20:03:57.231Z,94.80
2022-10-26T20:06:23.953Z,69.60
2022-10-26T20:08:50.989Z,62.30
2022-10-26T20:11:18.661Z,62.90
2022-10-26T20:13:47.886Z,56.20
2022-10-26T20:16:16.605Z,61.40
2022-10-26T20:18:47.560Z,65.60
2022-10-26T20:21:16.994Z,62.70
2022-10-26T20:23:45.270Z,60.30
2022-10-26T20:26:19.829Z,64.60
2022-10-26T20:28:51.996Z,63.90
2022-10-26T20:31:19.296Z,57.90
2022-10-26T20:33:51.713Z,57.90
2022-10-26T20:36:18.755Z,60.20
2022-10-26T20:38:46.017Z,58.00
2022-10-26T20:41:12.893Z,55.30
2022-10-26T20:43:41.132Z,57.60
2022-10-26T20:46:25.005Z,61.50
2022-10-26T20:48:53.197Z,58.50
2022-10-26T20:51:35.348Z,57.70
2022-10-26T20:54:02.200Z,61.00
2022-10-26T20:56:29.386Z,63.50
2022-10-26T20:59:08.413Z,60.80
2022-10-26T21:01:37.921Z,61.40
2022-10-26T21:04:05.025Z,134.20
2022-10-26T21:06:40.114Z,102.00
2022-10-26T21:09:08.997Z,114.60
2022-10-26T21:11:36.045Z,111.60
2022-10-26T21:14:04.735Z,75.60
2022-10-26T21:16:32.150Z,70.60
2022-10-26T21:18:59.892Z,69.70
2022-10-26T21:21:26.398Z,67.30
2022-10-26T21:23:54.615Z,69.60
2022-10-26T21:26:21.352Z,72.10
2022-10-26T21:28:48.425Z,67.20
2022-10-26T21:31:17.865Z,69.40
2022-10-26T21:33:46.590Z,71.70
2022-10-26T21:36:14.457Z,67.20
2022-10-26T21:38:43.245Z,66.30
2022-10-26T21:41:16.125Z,60.30
2022-10-26T21:43:47.720Z,62.50
2022-10-26T21:46:15.980Z,56.30
2022-10-26T21:48:43.024Z,60.00
2022-10-26T21:51:19.935Z,54.50
2022-10-26T21:53:47.579Z,58.60
2022-10-26T21:56:21.615Z,65.50
2022-10-26T21:58:48.958Z,65.90
2022-10-26T22:01:18.647Z,64.30
2022-10-26T22:03:46.415Z,66.50
2022-10-26T22:06:16.074Z,66.30
2022-10-26T22:08:43.333Z,71.50
2022-10-26T22:11:16.550Z,76.30
2022-10-26T22:13:44.312Z,88.90
2022-10-26T22:16:18.778Z,97.30
2022-10-26T22:18:46.096Z,107.70
2022-10-26T22:21:15.666Z,134.00
2022-10-26T22:23:43.979Z,158.50
2022-10-26T22:26:19.595Z,255.10
2022-10-26T22:28:49.226Z,173.20
2022-10-26T22:31:20.031Z,152.40
2022-10-26T22:34:01.916Z,152.70
2022-10-26T22:36:32.245Z,168.40
2022-10-26T22:38:59.308Z,159.50
2022-10-26T22:41:25.936Z,161.20
2022-10-26T22:43:52.744Z,148.10
2022-10-26T22:46:28.500Z,146.20
2022-10-26T22:48:59.285Z,147.10
2022-10-26T22:51:32.156Z,174.00
2022-10-26T22:54:01.205Z,149.20
2022-10-26T22:56:29.918Z,158.30
2022-10-26T22:58:57.516Z,154.40
2022-10-26T23:01:27.873Z,144.00
2022-10-26T23:03:57.419Z,162.90
2022-10-26T23:06:30.987Z,169.00
2022-10-26T23:08:58.445Z,178.30
2022-10-26T23:11:28.320Z,189.90
2022-10-26T23:14:15.023Z,193.10
2022-10-26T23:16:41.850Z,178.00
2022-10-26T23:19:08.925Z,262.20
2022-10-26T23:21:35.513Z,226.20
2022-10-26T23:24:02.766Z,291.50
2022-10-26T23:26:30.351Z,277.50
2022-10-26T23:28:56.970Z,236.30
2022-10-26T23:31:26.171Z,252.80
2022-10-26T23:33:54.920Z,275.60
2022-10-26T23:36:22.418Z,258.00
2022-10-26T23:38:49.498Z,286.50
2022-10-26T23:41:16.154Z,269.00
2022-10-26T23:43:42.849Z,363.70
2022-10-26T23:46:09.771Z,303.20
2022-10-26T23:48:36.913Z,286.90
2022-10-26T23:51:03.754Z,280.10
2022-10-26T23:53:30.214Z,235.70
2022-10-26T23:55:56.769Z,250.90
2022-10-26T23:58:23.476Z,212.20
